Joe Lochrico — WDJ3868 — position and weather

sailwx.info

Track history (hours):
 
Tides and Currents Weather Stations Pressure Air Temp Water Temp Dewpoint Dewpoint Depression Visibility Wind Speed Wind Dir Waves Ship Positions

Joe Lochrico

Owner: Kirby Inland Marine, LP, Houston, TX. More information available from US FCC via Universal Licensing System and Coast Guard Vessel Documentation Center.

Last reported at 2017-Dec-11 17:00 UTC. Time now 2017-Dec-12 12:25 UTC.
Position N 29°47' W 095°04'.

Length 118 m; draft 3 m.

Type: . MMSI: 367772180.

Date/timePositionNaut miles runAvg speedWind from/ knotsBaromVisibWave heightAir tempDewpointWater temp
2017-Dec-11 17:00N 29°47' W 095°04'0 0.1
2017-Dec-11 15:57N 29°47' W 095°04'0 0.2
2017-Dec-11 13:51N 29°47' W 095°04'0 0.0
2017-Dec-11 13:19N 29°47' W 095°04'1 1.8
2017-Dec-11 13:01N 29°47' W 095°05'0 0.0
2017-Dec-11 12:31N 29°47' W 095°05'0 0.0
2017-Dec-11 12:00N 29°47' W 095°05'0 0.0
2017-Dec-11 11:30N 29°47' W 095°05'0 0.0
2017-Dec-11 11:00N 29°47' W 095°05'0 0.0
2017-Dec-11 10:30N 29°47' W 095°05'1 1.0
2017-Dec-11 09:06N 29°46' W 095°06'0 0.0
2017-Dec-11 08:51N 29°46' W 095°06'0 0.0
2017-Dec-11 08:15N 29°46' W 095°06'0 0.0
2017-Dec-11 06:48N 29°46' W 095°06'0 0.0
2017-Dec-11 06:21N 29°46' W 095°06'0 0.0
2017-Dec-11 05:57N 29°46' W 095°06'0 0.0
2017-Dec-11 05:06N 29°46' W 095°06'0 0.0
2017-Dec-11 04:57N 29°46' W 095°06'0 0.0
2017-Dec-11 04:30N 29°46' W 095°06'0 0.0
2017-Dec-11 03:45N 29°46' W 095°06'0 0.0
2017-Dec-10 15:18N 29°46' W 095°06'0 0.0
2017-Dec-10 14:59N 29°46' W 095°06'0 0.0
2017-Dec-10 14:30N 29°46' W 095°06'0 0.0
2017-Dec-10 14:00N 29°46' W 095°06'0 0.0
2017-Dec-10 13:30N 29°46' W 095°06'0 0.0
2017-Dec-10 13:00N 29°46' W 095°06'1 2.1
2017-Dec-10 12:30N 29°45' W 095°06'0 0.0
2017-Dec-10 12:00N 29°45' W 095°06'2 4.9
2017-Dec-10 11:31N 29°47' W 095°04'1 1.2
2017-Dec-10 10:57N 29°47' W 095°04'2 4.2
2017-Dec-10 10:31N 29°46' W 095°05'0 0.4
2017-Dec-10 09:59N 29°46' W 095°06'0 0.0
2017-Dec-10 09:30N 29°46' W 095°06'0 0.0
2017-Dec-10 09:00N 29°46' W 095°06'0 0.6
2017-Dec-10 08:30N 29°46' W 095°05'1 2.2
2017-Dec-10 07:56N 29°45' W 095°06'0 0.3
2017-Dec-10 07:31N 29°45' W 095°06'2 3.4
2017-Dec-10 06:57N 29°46' W 095°05'1 1.2
2017-Dec-10 06:30N 29°47' W 095°05'0 0.0
2017-Dec-10 06:00N 29°47' W 095°05'0 0.2
2017-Dec-10 05:30N 29°47' W 095°04'0 0.0
2017-Dec-10 05:00N 29°47' W 095°04'1 2.0
2017-Dec-10 04:30N 29°46' W 095°05'1 2.1
2017-Dec-10 04:00N 29°45' W 095°06'0 0.0
2017-Dec-10 03:30N 29°45' W 095°06'0 0.0
2017-Dec-10 02:55N 29°45' W 095°06'1 3.2
2017-Dec-10 02:30N 29°46' W 095°05'1 0.9
2017-Dec-10 01:50N 29°47' W 095°04'0 0.0
2017-Dec-10 01:30N 29°47' W 095°04'0 0.0
2017-Dec-10 00:59N 29°47' W 095°04'0 0.0
2017-Dec-10 00:30N 29°47' W 095°04'0 0.0
2017-Dec-10 00:00N 29°47' W 095°04'0 0.0
2017-Dec-09 23:29N 29°47' W 095°04'0 0.0
2017-Dec-09 22:59N 29°47' W 095°04'1 2.4
2017-Dec-09 22:30N 29°46' W 095°05'1 0.1
2017-Dec-09 14:38N 29°46' W 095°06'0 0.0
2017-Dec-09 14:24N 29°46' W 095°06'0 1.0
2017-Dec-09 14:00N 29°45' W 095°06'0 0.8
2017-Dec-09 13:30N 29°46' W 095°05'3 6.0
2017-Dec-09 13:00N 29°44' W 095°03'3 6.1
2017-Dec-09 12:31N 29°42' W 094°60'4 7.6
2017-Dec-09 12:00N 29°39' W 094°58'4 7.9
2017-Dec-09 11:30N 29°35' W 094°56'4 8.3
2017-Dec-09 11:00N 29°31' W 094°53'6 8.5
2017-Dec-09 10:21N 29°27' W 094°50'70 1.7
2017-Dec-07 16:54N 30°03' W 093°42'2 5.8
2017-Dec-07 16:31N 30°04' W 093°39'3 5.5
2017-Dec-07 16:01N 30°04' W 093°36'3 5.4
2017-Dec-07 15:30N 30°04' W 093°33'3 5.2
2017-Dec-07 15:01N 30°04' W 093°30'3 5.1
2017-Dec-07 14:31N 30°04' W 093°27'3 5.3
2017-Dec-07 14:01N 30°04' W 093°24'2 3.8
2017-Dec-07 13:31N 30°04' W 093°22'0 0.0
2017-Dec-07 13:01N 30°04' W 093°22'0 0.1
2017-Dec-07 12:30N 30°04' W 093°22'0 0.0
2017-Dec-07 12:01N 30°04' W 093°22'0 0.0
2017-Dec-07 11:30N 30°04' W 093°22'0 0.1
2017-Dec-07 11:01N 30°04' W 093°22'0 0.1
2017-Dec-07 10:30N 30°04' W 093°22'0 0.0
2017-Dec-07 10:01N 30°04' W 093°22'0 0.0
2017-Dec-07 09:30N 30°04' W 093°22'1 1.3
2017-Dec-07 09:01N 30°04' W 093°21'3 5.8
2017-Dec-07 08:31N 30°06' W 093°19'0 0.0
2017-Dec-07 08:00N 30°06' W 093°19'1 1.1
2017-Dec-07 07:31N 30°06' W 093°19'3 5.4
2017-Dec-07 07:00N 30°04' W 093°21'0 0.8
2017-Dec-07 06:30N 30°04' W 093°22'0 0.0
2017-Dec-07 06:00N 30°04' W 093°22'0 0.0
2017-Dec-07 05:31N 30°04' W 093°22'0 0.0
2017-Dec-07 05:01N 30°04' W 093°22'0 0.1
2017-Dec-07 04:30N 30°04' W 093°22'0 0.3
2017-Dec-07 04:01N 30°04' W 093°22'2 3.2
2017-Dec-07 03:30N 30°05' W 093°20'2 3.9
2017-Dec-07 03:00N 30°07' W 093°20'2 3.4
2017-Dec-07 02:29N 30°08' W 093°19'0 0.0
2017-Dec-07 01:59N 30°08' W 093°19'0 0.0
2017-Dec-06 23:11N 30°08' W 093°19'0 0.0
2017-Dec-06 22:59N 30°08' W 093°19'0 0.0
2017-Dec-06 22:29N 30°08' W 093°19'0 0.0
2017-Dec-06 21:59N 30°08' W 093°19'0 0.0
2017-Dec-06 21:29N 30°08' W 093°19'0 0.0
2017-Dec-06 20:59N 30°08' W 093°19'  
2017-Dec-03 04:37N 29°25' W 094°43'0 0.0
2017-Dec-03 04:07N 29°25' W 094°43'0 0.0
2017-Dec-03 03:58N 29°25' W 094°43'0 0.0
2017-Dec-03 03:28N 29°25' W 094°43'  
Track history (hours):
 
Tides and Currents Weather Stations Pressure Air Temp Water Temp Dewpoint Dewpoint Depression Visibility Wind Speed Wind Dir Waves Ship Positions

Joe Lochrico

Owner: Kirby Inland Marine, LP, Houston, TX. More information available from US FCC via Universal Licensing System and Coast Guard Vessel Documentation Center.

Last reported at 2017-Dec-11 17:00 UTC. Time now 2017-Dec-12 12:25 UTC.
Position N 29°47' W 095°04'.

Length 118 m; draft 3 m.

Type: . MMSI: 367772180.

Date/timePositionNaut miles runAvg speedWind from/ knotsBaromVisibWave heightAir tempDewpointWater temp
2017-Dec-11 17:00N 29°47' W 095°04'0 0.1
2017-Dec-11 15:57N 29°47' W 095°04'0 0.2
2017-Dec-11 13:51N 29°47' W 095°04'0 0.0
2017-Dec-11 13:19N 29°47' W 095°04'1 1.8
2017-Dec-11 13:01N 29°47' W 095°05'0 0.0
2017-Dec-11 12:31N 29°47' W 095°05'0 0.0
2017-Dec-11 12:00N 29°47' W 095°05'0 0.0
2017-Dec-11 11:30N 29°47' W 095°05'0 0.0
2017-Dec-11 11:00N 29°47' W 095°05'0 0.0
2017-Dec-11 10:30N 29°47' W 095°05'1 1.0
2017-Dec-11 09:06N 29°46' W 095°06'0 0.0
2017-Dec-11 08:51N 29°46' W 095°06'0 0.0
2017-Dec-11 08:15N 29°46' W 095°06'0 0.0
2017-Dec-11 06:48N 29°46' W 095°06'0 0.0
2017-Dec-11 06:21N 29°46' W 095°06'0 0.0
2017-Dec-11 05:57N 29°46' W 095°06'0 0.0
2017-Dec-11 05:06N 29°46' W 095°06'0 0.0
2017-Dec-11 04:57N 29°46' W 095°06'0 0.0
2017-Dec-11 04:30N 29°46' W 095°06'0 0.0
2017-Dec-11 03:45N 29°46' W 095°06'0 0.0
2017-Dec-10 15:18N 29°46' W 095°06'0 0.0
2017-Dec-10 14:59N 29°46' W 095°06'0 0.0
2017-Dec-10 14:30N 29°46' W 095°06'0 0.0
2017-Dec-10 14:00N 29°46' W 095°06'0 0.0
2017-Dec-10 13:30N 29°46' W 095°06'0 0.0
2017-Dec-10 13:00N 29°46' W 095°06'1 2.1
2017-Dec-10 12:30N 29°45' W 095°06'0 0.0
2017-Dec-10 12:00N 29°45' W 095°06'2 4.9
2017-Dec-10 11:31N 29°47' W 095°04'1 1.2
2017-Dec-10 10:57N 29°47' W 095°04'2 4.2
2017-Dec-10 10:31N 29°46' W 095°05'0 0.4
2017-Dec-10 09:59N 29°46' W 095°06'0 0.0
2017-Dec-10 09:30N 29°46' W 095°06'0 0.0
2017-Dec-10 09:00N 29°46' W 095°06'0 0.6
2017-Dec-10 08:30N 29°46' W 095°05'1 2.2
2017-Dec-10 07:56N 29°45' W 095°06'0 0.3
2017-Dec-10 07:31N 29°45' W 095°06'2 3.4
2017-Dec-10 06:57N 29°46' W 095°05'1 1.2
2017-Dec-10 06:30N 29°47' W 095°05'0 0.0
2017-Dec-10 06:00N 29°47' W 095°05'0 0.2
2017-Dec-10 05:30N 29°47' W 095°04'0 0.0
2017-Dec-10 05:00N 29°47' W 095°04'1 2.0
2017-Dec-10 04:30N 29°46' W 095°05'1 2.1
2017-Dec-10 04:00N 29°45' W 095°06'0 0.0
2017-Dec-10 03:30N 29°45' W 095°06'0 0.0
2017-Dec-10 02:55N 29°45' W 095°06'1 3.2
2017-Dec-10 02:30N 29°46' W 095°05'1 0.9
2017-Dec-10 01:50N 29°47' W 095°04'0 0.0
2017-Dec-10 01:30N 29°47' W 095°04'0 0.0
2017-Dec-10 00:59N 29°47' W 095°04'0 0.0
2017-Dec-10 00:30N 29°47' W 095°04'0 0.0
2017-Dec-10 00:00N 29°47' W 095°04'0 0.0
2017-Dec-09 23:29N 29°47' W 095°04'0 0.0
2017-Dec-09 22:59N 29°47' W 095°04'1 2.4
2017-Dec-09 22:30N 29°46' W 095°05'1 0.1
2017-Dec-09 14:38N 29°46' W 095°06'0 0.0
2017-Dec-09 14:24N 29°46' W 095°06'0 1.0
2017-Dec-09 14:00N 29°45' W 095°06'0 0.8
2017-Dec-09 13:30N 29°46' W 095°05'3 6.0
2017-Dec-09 13:00N 29°44' W 095°03'3 6.1
2017-Dec-09 12:31N 29°42' W 094°60'4 7.6
2017-Dec-09 12:00N 29°39' W 094°58'4 7.9
2017-Dec-09 11:30N 29°35' W 094°56'4 8.3
2017-Dec-09 11:00N 29°31' W 094°53'6 8.5
2017-Dec-09 10:21N 29°27' W 094°50'70 1.7
2017-Dec-07 16:54N 30°03' W 093°42'2 5.8
2017-Dec-07 16:31N 30°04' W 093°39'3 5.5
2017-Dec-07 16:01N 30°04' W 093°36'3 5.4
2017-Dec-07 15:30N 30°04' W 093°33'3 5.2
2017-Dec-07 15:01N 30°04' W 093°30'3 5.1
2017-Dec-07 14:31N 30°04' W 093°27'3 5.3
2017-Dec-07 14:01N 30°04' W 093°24'2 3.8
2017-Dec-07 13:31N 30°04' W 093°22'0 0.0
2017-Dec-07 13:01N 30°04' W 093°22'0 0.1
2017-Dec-07 12:30N 30°04' W 093°22'0 0.0
2017-Dec-07 12:01N 30°04' W 093°22'0 0.0
2017-Dec-07 11:30N 30°04' W 093°22'0 0.1
2017-Dec-07 11:01N 30°04' W 093°22'0 0.1
2017-Dec-07 10:30N 30°04' W 093°22'0 0.0
2017-Dec-07 10:01N 30°04' W 093°22'0 0.0
2017-Dec-07 09:30N 30°04' W 093°22'1 1.3
2017-Dec-07 09:01N 30°04' W 093°21'3 5.8
2017-Dec-07 08:31N 30°06' W 093°19'0 0.0
2017-Dec-07 08:00N 30°06' W 093°19'1 1.1
2017-Dec-07 07:31N 30°06' W 093°19'3 5.4
2017-Dec-07 07:00N 30°04' W 093°21'0 0.8
2017-Dec-07 06:30N 30°04' W 093°22'0 0.0
2017-Dec-07 06:00N 30°04' W 093°22'0 0.0
2017-Dec-07 05:31N 30°04' W 093°22'0 0.0
2017-Dec-07 05:01N 30°04' W 093°22'0 0.1
2017-Dec-07 04:30N 30°04' W 093°22'0 0.3
2017-Dec-07 04:01N 30°04' W 093°22'2 3.2
2017-Dec-07 03:30N 30°05' W 093°20'2 3.9
2017-Dec-07 03:00N 30°07' W 093°20'2 3.4
2017-Dec-07 02:29N 30°08' W 093°19'0 0.0
2017-Dec-07 01:59N 30°08' W 093°19'0 0.0
2017-Dec-06 23:11N 30°08' W 093°19'0 0.0
2017-Dec-06 22:59N 30°08' W 093°19'0 0.0
2017-Dec-06 22:29N 30°08' W 093°19'0 0.0
2017-Dec-06 21:59N 30°08' W 093°19'0 0.0
2017-Dec-06 21:29N 30°08' W 093°19'0 0.0
2017-Dec-06 20:59N 30°08' W 093°19'  
2017-Dec-03 04:37N 29°25' W 094°43'0 0.0
2017-Dec-03 04:07N 29°25' W 094°43'0 0.0
2017-Dec-03 03:58N 29°25' W 094°43'0 0.0
2017-Dec-03 03:28N 29°25' W 094°43'  

Dump ship's entire track history